createdAt,value
2018-04-23T00:00:00.050Z,36.40
2018-04-23T00:01:00.042Z,37.90
2018-04-23T00:02:00.031Z,37.00
2018-04-23T00:03:00.010Z,38.80
2018-04-23T00:04:00.000Z,38.10
2018-04-23T00:04:59.990Z,38.50
2018-04-23T00:05:59.978Z,37.70
2018-04-23T00:06:59.967Z,38.00
2018-04-23T00:07:59.954Z,39.60
2018-04-23T00:08:59.942Z,38.80
2018-04-23T00:09:59.931Z,36.20
2018-04-23T00:10:59.917Z,37.40
2018-04-23T00:11:59.911Z,39.70
2018-04-23T00:12:59.898Z,39.90
2018-04-23T00:13:59.882Z,39.90
2018-04-23T00:14:59.872Z,39.80
2018-04-23T00:15:59.858Z,41.30
2018-04-23T00:16:59.846Z,40.70
2018-04-23T00:17:59.833Z,41.00
2018-04-23T00:18:59.819Z,41.20
2018-04-23T00:19:59.812Z,40.20
2018-04-23T00:20:59.801Z,37.90
2018-04-23T00:21:59.785Z,34.10
2018-04-23T00:22:59.806Z,33.40
2018-04-23T00:23:59.762Z,29.60
2018-04-23T00:24:59.756Z,30.70
2018-04-23T00:25:59.737Z,31.60
2018-04-23T00:26:59.728Z,30.00
2018-04-23T00:27:59.711Z,31.70
2018-04-23T00:28:59.702Z,32.30
2018-04-23T00:29:59.690Z,33.60
2018-04-23T00:30:59.680Z,31.90
2018-04-23T00:31:59.663Z,31.60
2018-04-23T00:32:59.658Z,30.60
2018-04-23T00:33:59.643Z,29.80
2018-04-23T00:34:59.627Z,27.60
2018-04-23T00:35:59.620Z,26.70
2018-04-23T00:36:59.604Z,25.60
2018-04-23T00:37:59.595Z,23.60
2018-04-23T00:38:59.580Z,23.40
2018-04-23T00:39:59.574Z,24.40
2018-04-23T00:40:59.555Z,23.70
2018-04-23T00:41:59.549Z,24.90
2018-04-23T00:42:59.530Z,24.30
2018-04-23T00:43:59.519Z,26.00
2018-04-23T00:44:59.511Z,23.70
2018-04-23T00:45:59.499Z,24.20
2018-04-23T00:46:59.532Z,24.80
2018-04-23T00:47:59.470Z,27.50
2018-04-23T00:48:59.489Z,24.40
2018-04-23T00:49:59.447Z,25.90
2018-04-23T00:50:59.489Z,23.90
2018-04-23T00:51:59.430Z,28.30
2018-04-23T00:52:59.468Z,27.10
2018-04-23T00:53:59.397Z,27.30
2018-04-23T00:54:59.434Z,24.70
2018-04-23T00:55:59.377Z,27.60
2018-04-23T00:56:59.362Z,28.50
2018-04-23T00:57:59.354Z,26.50
2018-04-23T00:58:59.384Z,27.10
2018-04-23T00:59:59.322Z,31.30
2018-04-23T01:00:59.312Z,29.50
2018-04-23T01:01:59.300Z,28.60
2018-04-23T01:02:59.285Z,30.00
2018-04-23T01:03:59.278Z,30.50
2018-04-23T01:04:59.262Z,32.50
2018-04-23T01:05:59.251Z,31.40
2018-04-23T01:06:59.236Z,31.20
2018-04-23T01:07:59.221Z,32.30
2018-04-23T01:08:59.213Z,31.50
2018-04-23T01:09:59.197Z,32.00
2018-04-23T01:10:59.188Z,33.20
2018-04-23T01:11:59.176Z,37.10
2018-04-23T01:12:59.160Z,33.60
2018-04-23T01:13:59.151Z,31.20
2018-04-23T01:14:59.137Z,32.60
2018-04-23T01:15:59.128Z,32.30
2018-04-23T01:16:59.113Z,34.70
2018-04-23T01:17:59.102Z,34.20
2018-04-23T01:18:59.090Z,31.40
2018-04-23T01:19:59.080Z,34.90
2018-04-23T01:20:59.067Z,35.70
2018-04-23T01:21:59.057Z,35.30
2018-04-23T01:22:59.041Z,34.90
2018-04-23T01:23:59.026Z,35.90
2018-04-23T01:24:59.018Z,35.50
2018-04-23T01:25:59.004Z,39.10
2018-04-23T01:26:58.990Z,35.70
2018-04-23T01:27:58.982Z,35.70
2018-04-23T01:28:58.965Z,35.50
2018-04-23T01:29:58.956Z,35.70
2018-04-23T01:30:58.941Z,36.40
2018-04-23T01:31:58.930Z,36.70
2018-04-23T01:32:58.917Z,36.30
2018-04-23T01:33:58.908Z,37.40
2018-04-23T01:34:58.895Z,37.60
2018-04-23T01:35:58.880Z,36.10
2018-04-23T01:36:58.870Z,36.20
2018-04-23T01:37:58.855Z,37.50
2018-04-23T01:38:58.848Z,38.00
2018-04-23T01:39:58.835Z,37.70
2018-04-23T01:40:58.821Z,38.40
2018-04-23T01:41:58.820Z,37.00
2018-04-23T01:42:58.794Z,39.70
2018-04-23T01:43:58.838Z,38.40
2018-04-23T01:44:58.776Z,40.40
2018-04-23T01:45:58.785Z,40.00
2018-04-23T01:46:58.749Z,40.00
2018-04-23T01:47:58.740Z,40.00
2018-04-23T01:48:58.721Z,41.60
2018-04-23T01:49:58.720Z,40.90
2018-04-23T01:50:58.699Z,42.60
2018-04-23T01:51:58.685Z,41.50
2018-04-23T01:52:58.676Z,41.80
2018-04-23T01:53:58.671Z,42.80
2018-04-23T01:54:58.648Z,43.00
2018-04-23T01:55:58.639Z,41.50
2018-04-23T01:56:58.630Z,42.10
2018-04-23T01:57:58.619Z,42.30
2018-04-23T01:58:58.600Z,42.30
2018-04-23T01:59:58.590Z,42.80
2018-04-23T02:00:58.580Z,42.00
2018-04-23T02:01:58.569Z,43.60
2018-04-23T02:02:58.550Z,42.80
2018-04-23T02:03:58.539Z,42.60
2018-04-23T02:04:58.534Z,43.30
2018-04-23T02:05:58.521Z,43.50
2018-04-23T02:06:58.501Z,41.60
2018-04-23T02:07:58.489Z,43.90
2018-04-23T02:08:58.482Z,43.50
2018-04-23T02:09:58.470Z,43.80
2018-04-23T02:10:58.483Z,43.10
2018-04-23T02:11:58.437Z,44.10
2018-04-23T02:12:58.429Z,43.20
2018-04-23T02:13:58.416Z,43.10
2018-04-23T02:14:58.400Z,41.70
2018-04-23T02:15:58.390Z,42.90
2018-04-23T02:16:58.382Z,42.20
2018-04-23T02:17:58.377Z,44.30
2018-04-23T02:18:58.355Z,43.40
2018-04-23T02:19:58.341Z,43.80
2018-04-23T02:20:58.328Z,43.30
2018-04-23T02:21:58.316Z,44.30
2018-04-23T02:22:58.306Z,43.80
2018-04-23T02:23:58.299Z,43.30
2018-04-23T02:24:58.281Z,42.90
2018-04-23T02:25:58.270Z,43.30
2018-04-23T02:26:58.256Z,44.20
2018-04-23T02:27:58.244Z,43.60
2018-04-23T02:28:58.230Z,43.00
2018-04-23T02:29:58.223Z,42.90
2018-04-23T02:30:58.208Z,46.10
2018-04-23T02:31:58.198Z,44.30
2018-04-23T02:32:58.184Z,44.70
2018-04-23T02:33:58.170Z,44.30
2018-04-23T02:34:58.168Z,44.90
2018-04-23T02:35:58.150Z,44.90
2018-04-23T02:36:58.130Z,46.20
2018-04-23T02:37:58.120Z,46.60
2018-04-23T02:38:58.136Z,48.00
2018-04-23T02:39:58.093Z,46.30
2018-04-23T02:40:58.095Z,47.10
2018-04-23T02:41:58.072Z,47.40
2018-04-23T02:42:58.061Z,48.50
2018-04-23T02:43:58.049Z,48.30
2018-04-23T02:44:58.033Z,48.00
2018-04-23T02:45:58.034Z,49.00
2018-04-23T02:46:58.009Z,50.80
2018-04-23T02:47:58.004Z,49.80
2018-04-23T02:48:57.983Z,49.80
2018-04-23T02:49:57.974Z,49.40
2018-04-23T02:50:57.960Z,50.60
2018-04-23T02:51:57.951Z,50.80
2018-04-23T02:52:57.940Z,50.80
2018-04-23T02:53:57.922Z,51.50
2018-04-23T02:54:57.922Z,51.50
2018-04-23T02:55:57.901Z,50.90
2018-04-23T02:56:57.890Z,51.90
2018-04-23T02:57:57.871Z,51.20
2018-04-23T02:58:57.861Z,52.30
2018-04-23T02:59:57.848Z,52.50
2018-04-23T03:00:57.846Z,52.80
2018-04-23T03:01:57.818Z,52.70
2018-04-23T03:02:57.957Z,53.40
2018-04-23T03:03:57.802Z,52.00
2018-04-23T03:04:57.886Z,53.90
2018-04-23T03:05:57.771Z,54.30
2018-04-23T03:06:57.756Z,54.00
2018-04-23T03:07:57.750Z,53.20
2018-04-23T03:08:57.786Z,54.80
2018-04-23T03:09:57.723Z,54.70
2018-04-23T03:10:57.713Z,55.00
2018-04-23T03:11:57.692Z,56.10
2018-04-23T03:12:57.783Z,56.50
2018-04-23T03:13:57.670Z,56.70
2018-04-23T03:14:57.662Z,55.00
2018-04-23T03:15:57.642Z,56.30
2018-04-23T03:16:57.678Z,55.30
2018-04-23T03:17:57.619Z,56.80
2018-04-23T03:18:57.612Z,56.40
2018-04-23T03:19:57.591Z,59.40
2018-04-23T03:20:57.582Z,57.60
2018-04-23T03:21:57.567Z,59.10
2018-04-23T03:22:57.601Z,57.30
2018-04-23T03:23:57.547Z,59.70
2018-04-23T03:24:57.527Z,57.50
2018-04-23T03:25:57.522Z,59.30
2018-04-23T03:26:57.502Z,56.40
2018-04-23T03:27:57.496Z,58.40
2018-04-23T03:28:57.483Z,58.40
2018-04-23T03:29:57.471Z,59.10
2018-04-23T03:30:57.455Z,58.30
2018-04-23T03:31:57.444Z,57.10
2018-04-23T03:32:57.432Z,56.90
2018-04-23T03:33:57.420Z,57.90
2018-04-23T03:34:57.402Z,56.60
2018-04-23T03:35:57.396Z,55.90
2018-04-23T03:36:57.382Z,56.50
2018-04-23T03:37:57.373Z,51.20
2018-04-23T03:38:57.350Z,51.20
2018-04-23T03:39:57.343Z,51.50
2018-04-23T03:40:57.336Z,52.00
2018-04-23T03:41:57.314Z,48.90
2018-04-23T03:42:57.303Z,47.90
2018-04-23T03:43:57.287Z,45.60
2018-04-23T03:44:57.272Z,45.80
2018-04-23T03:45:57.259Z,46.60
2018-04-23T03:46:57.251Z,45.50
2018-04-23T03:47:57.245Z,42.40
2018-04-23T03:48:57.222Z,43.40
2018-04-23T03:49:57.213Z,44.20
2018-04-23T03:50:57.202Z,42.10
2018-04-23T03:51:57.183Z,41.40
2018-04-23T03:52:57.170Z,40.10
2018-04-23T03:53:57.158Z,41.40
2018-04-23T03:54:57.143Z,38.60
2018-04-23T03:55:57.132Z,38.60
2018-04-23T03:56:57.121Z,39.80
2018-04-23T03:57:57.111Z,39.20
2018-04-23T03:58:57.093Z,38.80
2018-04-23T03:59:57.082Z,37.80
2018-04-23T04:00:57.068Z,39.20
2018-04-23T04:01:57.052Z,38.60
2018-04-23T04:02:57.044Z,38.70
2018-04-23T04:03:57.032Z,38.20
2018-04-23T04:04:57.017Z,38.10
2018-04-23T04:05:57.001Z,36.90
2018-04-23T04:06:56.992Z,37.40
2018-04-23T04:07:56.976Z,38.20
2018-04-23T04:08:56.962Z,37.50
2018-04-23T04:09:56.952Z,39.00
2018-04-23T04:10:56.939Z,38.20
2018-04-23T04:11:56.922Z,38.30
2018-04-23T04:12:56.912Z,39.70
2018-04-23T04:13:56.902Z,38.20
2018-04-23T04:14:56.892Z,40.50
2018-04-23T04:15:56.874Z,39.20
2018-04-23T04:16:56.894Z,40.10
2018-04-23T04:17:56.854Z,40.00
2018-04-23T04:18:56.838Z,40.20
2018-04-23T04:19:56.823Z,40.70
2018-04-23T04:20:56.812Z,41.70
2018-04-23T04:21:56.796Z,39.70
2018-04-23T04:22:56.783Z,42.50
2018-04-23T04:23:56.774Z,41.50
2018-04-23T04:24:56.758Z,41.50
2018-04-23T04:25:56.753Z,40.90
2018-04-23T04:26:56.733Z,41.60
2018-04-23T04:27:56.724Z,43.40
2018-04-23T04:28:56.704Z,40.20
2018-04-23T04:29:56.692Z,46.30
2018-04-23T04:30:56.681Z,40.60
2018-04-23T04:31:56.667Z,42.60
2018-04-23T04:32:56.652Z,42.30
2018-04-23T04:33:56.654Z,42.80
2018-04-23T04:34:56.632Z,42.30
2018-04-23T04:35:56.614Z,43.80
2018-04-23T04:36:56.602Z,41.70
2018-04-23T04:37:56.595Z,43.20
2018-04-23T04:38:56.572Z,40.30
2018-04-23T04:39:56.569Z,42.90
2018-04-23T04:40:56.552Z,40.50
2018-04-23T04:41:56.540Z,43.10
2018-04-23T04:42:56.521Z,37.90
2018-04-23T04:43:56.564Z,39.70
2018-04-23T04:44:56.507Z,41.60
2018-04-23T04:45:56.534Z,38.60
2018-04-23T04:46:56.474Z,36.30
2018-04-23T04:47:56.458Z,35.50
2018-04-23T04:48:56.484Z,39.00
2018-04-23T04:49:56.436Z,36.00
2018-04-23T04:50:56.428Z,35.00
2018-04-23T04:51:56.409Z,35.60
2018-04-23T04:52:56.397Z,33.70
2018-04-23T04:53:56.383Z,31.20
2018-04-23T04:54:56.367Z,33.60
2018-04-23T04:55:56.353Z,29.90
2018-04-23T04:56:56.342Z,31.30
2018-04-23T04:57:56.326Z,32.10
2018-04-23T04:58:56.311Z,30.00
2018-04-23T04:59:56.297Z,34.30
2018-04-23T05:00:56.288Z,30.30
2018-04-23T05:01:56.271Z,29.30
2018-04-23T05:02:56.256Z,30.40
2018-04-23T05:03:56.251Z,30.10
2018-04-23T05:04:56.234Z,28.20
2018-04-23T05:05:56.278Z,29.50
2018-04-23T05:06:56.214Z,28.70
2018-04-23T05:07:56.192Z,31.50
2018-04-23T05:08:56.193Z,30.30
2018-04-23T05:09:56.175Z,30.30
2018-04-23T05:10:56.152Z,31.30
2018-04-23T05:11:56.142Z,33.60
2018-04-23T05:12:56.131Z,32.40
2018-04-23T05:13:56.113Z,31.80
2018-04-23T05:14:56.099Z,31.20
2018-04-23T05:15:56.099Z,33.10
2018-04-23T05:16:56.081Z,29.80
2018-04-23T05:17:56.062Z,32.00
2018-04-23T05:18:56.050Z,34.90
2018-04-23T05:19:56.044Z,31.80
2018-04-23T05:20:56.020Z,36.40
2018-04-23T05:21:56.008Z,32.60
2018-04-23T05:22:56.006Z,30.50
2018-04-23T05:23:56.017Z,31.10
2018-04-23T05:24:55.969Z,29.50
2018-04-23T05:25:55.963Z,30.80
2018-04-23T05:26:55.965Z,31.30
2018-04-23T05:27:55.933Z,34.20
2018-04-23T05:28:55.924Z,30.00
2018-04-23T05:29:55.937Z,30.80
2018-04-23T05:30:55.891Z,30.40
2018-04-23T05:31:55.886Z,29.20
2018-04-23T05:32:55.902Z,30.00
2018-04-23T05:33:55.851Z,30.20
2018-04-23T05:34:55.838Z,28.20
2018-04-23T05:35:55.836Z,28.80
2018-04-23T05:36:55.813Z,30.50
2018-04-23T05:37:55.812Z,27.10
2018-04-23T05:38:55.892Z,28.00
2018-04-23T05:39:55.774Z,28.80
2018-04-23T05:40:55.812Z,24.30
2018-04-23T05:41:55.750Z,29.70
2018-04-23T05:42:55.745Z,25.80
2018-04-23T05:43:55.746Z,29.10
2018-04-23T05:44:55.721Z,27.50
2018-04-23T05:45:55.707Z,25.50
2018-04-23T05:46:55.687Z,29.20
2018-04-23T05:47:55.672Z,26.70
2018-04-23T05:48:55.663Z,24.30
2018-04-23T05:49:55.655Z,25.20
2018-04-23T05:50:55.634Z,26.50
2018-04-23T05:51:55.626Z,27.30
2018-04-23T05:52:55.613Z,24.10
2018-04-23T05:53:55.600Z,25.10
2018-04-23T05:54:55.595Z,24.70
2018-04-23T05:55:55.570Z,22.30
2018-04-23T05:56:55.558Z,28.00
2018-04-23T05:57:55.555Z,22.60
2018-04-23T05:58:55.538Z,24.30
2018-04-23T05:59:55.527Z,24.80
2018-04-23T06:00:55.508Z,22.70
2018-04-23T06:01:55.497Z,23.20
2018-04-23T06:02:55.494Z,24.10
2018-04-23T06:03:55.471Z,26.60
2018-04-23T06:04:55.469Z,21.20
2018-04-23T06:05:55.449Z,20.70
2018-04-23T06:06:55.432Z,23.60
2018-04-23T06:07:55.420Z,23.20
2018-04-23T06:08:55.456Z,24.40
2018-04-23T06:09:55.402Z,24.00
2018-04-23T06:10:55.385Z,22.60
2018-04-23T06:11:55.373Z,23.70
2018-04-23T06:12:55.359Z,23.90
2018-04-23T06:13:55.349Z,24.80
2018-04-23T06:14:55.333Z,21.50
2018-04-23T06:15:55.322Z,25.60
2018-04-23T06:16:55.310Z,23.60
2018-04-23T06:17:55.291Z,20.60
2018-04-23T06:18:55.276Z,25.20
2018-04-23T06:19:55.274Z,22.20
2018-04-23T06:20:55.257Z,21.30
2018-04-23T06:21:55.239Z,20.50
2018-04-23T06:22:55.230Z,20.20
2018-04-23T06:23:55.223Z,22.60
2018-04-23T06:24:55.202Z,23.90
2018-04-23T06:25:55.190Z,20.40
2018-04-23T06:26:55.194Z,21.30
2018-04-23T06:27:55.173Z,26.70
2018-04-23T06:28:55.153Z,22.30
2018-04-23T06:29:55.146Z,19.00
2018-04-23T06:30:55.137Z,21.30
2018-04-23T06:31:55.119Z,18.40
2018-04-23T06:32:55.101Z,21.70
2018-04-23T06:33:55.090Z,21.30
2018-04-23T06:34:55.076Z,19.90
2018-04-23T06:35:55.064Z,20.70
2018-04-23T06:36:55.055Z,21.50
2018-04-23T06:37:55.043Z,22.30
2018-04-23T06:38:55.030Z,22.20
2018-04-23T06:39:55.017Z,21.40
2018-04-23T06:40:55.004Z,19.50
2018-04-23T06:41:54.991Z,19.60
2018-04-23T06:42:54.983Z,19.30
2018-04-23T06:43:54.966Z,21.00
2018-04-23T06:44:54.956Z,18.40
2018-04-23T06:45:54.944Z,17.80
2018-04-23T06:46:54.936Z,20.70
2018-04-23T06:47:54.922Z,19.50
2018-04-23T06:48:54.904Z,19.20
2018-04-23T06:49:54.894Z,20.80
2018-04-23T06:50:54.878Z,19.70
2018-04-23T06:51:54.924Z,20.40
2018-04-23T06:52:54.855Z,19.40
2018-04-23T06:53:54.841Z,19.50
2018-04-23T06:54:54.830Z,18.90
2018-04-23T06:55:54.917Z,18.20
2018-04-23T06:56:54.806Z,17.70
2018-04-23T06:57:54.949Z,19.20
2018-04-23T06:58:54.779Z,17.60
2018-04-23T06:59:54.821Z,20.20
2018-04-23T07:00:54.757Z,21.00
2018-04-23T07:01:54.804Z,21.50
2018-04-23T07:02:54.731Z,18.90
2018-04-23T07:03:54.765Z,17.80
2018-04-23T07:04:54.731Z,16.90
2018-04-23T07:05:54.718Z,18.10
2018-04-23T07:06:54.679Z,17.70
2018-04-23T07:07:54.719Z,16.80
2018-04-23T07:08:54.659Z,17.10
2018-04-23T07:09:54.651Z,17.60
2018-04-23T07:10:54.633Z,16.90
2018-04-23T07:11:54.616Z,19.70
2018-04-23T07:12:54.609Z,16.50
2018-04-23T07:13:54.591Z,18.60
2018-04-23T07:14:54.580Z,16.90
2018-04-23T07:15:54.577Z,18.80
2018-04-23T07:16:54.560Z,22.30
2018-04-23T07:17:54.550Z,16.60
2018-04-23T07:18:54.532Z,15.90
2018-04-23T07:19:54.520Z,18.80
2018-04-23T07:20:54.508Z,19.30
2018-04-23T07:21:54.502Z,16.60
2018-04-23T07:22:54.484Z,17.40
2018-04-23T07:23:54.476Z,18.20
2018-04-23T07:24:54.460Z,16.40
2018-04-23T07:25:54.452Z,17.70
2018-04-23T07:26:54.441Z,16.70
2018-04-23T07:27:54.431Z,18.00
2018-04-23T07:28:54.421Z,19.00
2018-04-23T07:29:54.411Z,16.40
2018-04-23T07:30:54.402Z,17.90
2018-04-23T07:31:54.399Z,16.20
2018-04-23T07:32:54.384Z,14.70
2018-04-23T07:33:54.374Z,16.60
2018-04-23T07:34:54.427Z,14.70
2018-04-23T07:35:54.361Z,15.10
2018-04-23T07:36:54.352Z,15.30
2018-04-23T07:37:54.346Z,14.10
2018-04-23T07:38:54.342Z,15.20
2018-04-23T07:39:54.340Z,16.40
2018-04-23T07:40:54.330Z,15.10
2018-04-23T07:41:54.323Z,14.70
2018-04-23T07:42:54.322Z,13.40
2018-04-23T07:43:54.313Z,13.60
2018-04-23T07:44:54.310Z,13.50
2018-04-23T07:45:54.308Z,16.70
2018-04-23T07:46:54.402Z,13.70
2018-04-23T07:47:54.358Z,13.20
2018-04-23T07:48:54.293Z,13.50
2018-04-23T07:49:54.293Z,13.20
2018-04-23T07:50:54.292Z,12.60
2018-04-23T07:51:54.302Z,12.80
2018-04-23T07:52:54.282Z,13.70
2018-04-23T07:53:54.282Z,13.20
2018-04-23T07:54:54.279Z,13.40
2018-04-23T07:55:54.283Z,13.20
2018-04-23T07:56:54.280Z,13.00
2018-04-23T07:57:54.278Z,12.70
2018-04-23T07:58:54.281Z,13.10
2018-04-23T07:59:54.285Z,14.50
2018-04-23T08:00:54.293Z,12.10
2018-04-23T08:01:54.281Z,13.20
2018-04-23T08:02:54.282Z,12.90
2018-04-23T08:03:54.282Z,12.50
2018-04-23T08:04:54.282Z,14.10
2018-04-23T08:05:54.291Z,12.00
2018-04-23T08:06:54.286Z,11.70
2018-04-23T08:07:54.293Z,12.40
2018-04-23T08:08:54.282Z,12.10
2018-04-23T08:09:54.352Z,12.10
2018-04-23T08:10:54.288Z,11.70
2018-04-23T08:11:54.301Z,12.60
2018-04-23T08:12:54.294Z,11.60
2018-04-23T08:13:54.291Z,11.40
2018-04-23T08:14:54.291Z,12.30
2018-04-23T08:15:54.300Z,11.60
2018-04-23T08:16:54.293Z,11.20
2018-04-23T08:17:54.299Z,10.70
2018-04-23T08:18:54.299Z,12.80
2018-04-23T08:19:54.299Z,9.80
2018-04-23T08:20:54.311Z,11.70
2018-04-23T08:21:54.301Z,9.90
2018-04-23T08:22:54.307Z,11.20
2018-04-23T08:23:54.307Z,10.30
2018-04-23T08:24:54.310Z,11.50
2018-04-23T08:25:54.310Z,9.70
2018-04-23T08:26:54.310Z,10.00
2018-04-23T08:27:54.316Z,9.70
2018-04-23T08:28:54.315Z,9.50
2018-04-23T08:29:54.316Z,9.90
2018-04-23T08:30:54.327Z,10.90
2018-04-23T08:31:54.336Z,10.50
2018-04-23T08:32:54.318Z,10.00
2018-04-23T08:33:54.322Z,10.30
2018-04-23T08:34:54.321Z,10.10
2018-04-23T08:35:54.333Z,10.00
2018-04-23T08:36:54.329Z,10.80
2018-04-23T08:37:54.329Z,11.40
2018-04-23T08:38:54.326Z,10.80
2018-04-23T08:39:54.332Z,11.00
2018-04-23T08:40:54.334Z,10.40
2018-04-23T08:41:54.332Z,11.00
2018-04-23T08:42:54.333Z,10.00
2018-04-23T08:43:54.337Z,10.30
2018-04-23T08:44:54.337Z,11.20
2018-04-23T08:45:54.333Z,10.40
2018-04-23T08:46:54.333Z,11.70
2018-04-23T08:47:54.334Z,11.00
2018-04-23T08:48:54.354Z,10.70
2018-04-23T08:49:54.334Z,10.10
2018-04-23T08:50:54.334Z,10.70
2018-04-23T08:51:54.333Z,10.30
2018-04-23T08:52:54.335Z,9.60
2018-04-23T08:53:54.334Z,9.70
2018-04-23T08:54:54.335Z,9.80
2018-04-23T08:55:54.364Z,10.70
2018-04-23T08:56:54.329Z,9.60
2018-04-23T08:57:54.330Z,10.50
2018-04-23T08:58:54.332Z,11.10
2018-04-23T08:59:54.332Z,11.20
2018-04-23T09:00:54.332Z,9.90
2018-04-23T09:01:54.335Z,9.20
2018-04-23T09:02:54.339Z,9.00
2018-04-23T09:03:54.336Z,8.70
2018-04-23T09:04:54.342Z,8.90
2018-04-23T09:05:54.336Z,8.50
2018-04-23T09:06:54.347Z,9.90
2018-04-23T09:07:54.336Z,9.00
2018-04-23T09:08:54.334Z,9.00
2018-04-23T09:09:54.341Z,9.30
2018-04-23T09:10:54.342Z,8.70
2018-04-23T09:11:54.336Z,8.70
2018-04-23T09:12:54.337Z,8.20
2018-04-23T09:13:54.345Z,8.90
2018-04-23T09:14:54.344Z,8.50
2018-04-23T09:15:54.347Z,8.40
2018-04-23T09:16:54.344Z,8.80
2018-04-23T09:17:54.403Z,8.40
2018-04-23T09:18:54.352Z,9.30
2018-04-23T09:19:54.348Z,9.20
2018-04-23T09:20:54.344Z,8.20
2018-04-23T09:21:54.344Z,7.90
2018-04-23T09:22:54.343Z,7.90
2018-04-23T09:23:54.339Z,8.70
2018-04-23T09:24:54.394Z,8.50
2018-04-23T09:25:54.340Z,8.90
2018-04-23T09:26:54.349Z,8.50
2018-04-23T09:27:54.343Z,8.40
2018-04-23T09:28:54.334Z,8.50
2018-04-23T09:29:54.330Z,9.20
2018-04-23T09:30:54.331Z,9.70
2018-04-23T09:31:54.329Z,9.20
2018-04-23T09:32:54.327Z,9.00
2018-04-23T09:33:54.323Z,8.50
2018-04-23T09:34:54.319Z,8.70
2018-04-23T09:35:54.307Z,8.50
2018-04-23T09:36:54.308Z,11.00
2018-04-23T09:37:54.301Z,9.30
2018-04-23T09:38:54.328Z,8.60
2018-04-23T09:39:54.292Z,8.20
2018-04-23T09:40:54.286Z,9.30
2018-04-23T09:41:54.282Z,9.20
2018-04-23T09:42:54.275Z,9.40
2018-04-23T09:43:54.271Z,9.20
2018-04-23T09:44:54.264Z,8.70
2018-04-23T09:45:54.257Z,9.20
2018-04-23T09:46:54.264Z,8.70
2018-04-23T09:47:54.253Z,10.20
2018-04-23T09:48:54.241Z,9.10
2018-04-23T09:49:54.235Z,8.60
2018-04-23T09:50:54.227Z,8.40
2018-04-23T09:51:54.221Z,9.10
2018-04-23T09:52:54.211Z,8.40
2018-04-23T09:53:54.212Z,8.50
2018-04-23T09:54:54.201Z,8.00
2018-04-23T09:55:54.194Z,8.80
2018-04-23T09:56:54.187Z,7.70
2018-04-23T09:57:54.181Z,7.90
2018-04-23T09:58:54.181Z,8.40
2018-04-23T09:59:54.168Z,9.90
2018-04-23T10:00:54.161Z,8.50
2018-04-23T10:01:54.155Z,8.70
2018-04-23T10:02:54.151Z,8.20
2018-04-23T10:03:54.142Z,8.40
2018-04-23T10:04:54.134Z,8.30
2018-04-23T10:05:54.134Z,8.10
2018-04-23T10:06:54.121Z,7.90
2018-04-23T10:07:54.120Z,8.10
2018-04-23T10:08:54.112Z,10.20
2018-04-23T10:09:54.103Z,8.30
2018-04-23T10:10:54.096Z,10.30
2018-04-23T10:11:54.088Z,7.90
2018-04-23T10:12:54.088Z,7.90
2018-04-23T10:13:54.078Z,9.50
2018-04-23T10:14:54.071Z,7.70
2018-04-23T10:15:54.061Z,7.10
2018-04-23T10:16:54.064Z,6.90
2018-04-23T10:17:54.050Z,7.30
2018-04-23T10:18:54.042Z,6.90
2018-04-23T10:19:54.045Z,8.00
2018-04-23T10:20:54.032Z,7.20
2018-04-23T10:21:54.032Z,7.00
2018-04-23T10:22:54.021Z,7.70
2018-04-23T10:23:54.014Z,7.20
2018-04-23T10:24:54.008Z,8.20
2018-04-23T10:25:54.003Z,8.70
2018-04-23T10:26:53.996Z,8.00
2018-04-23T10:27:53.984Z,7.70
2018-04-23T10:28:53.983Z,9.00
2018-04-23T10:29:53.972Z,8.20
2018-04-23T10:30:53.965Z,8.20
2018-04-23T10:31:53.964Z,8.40
2018-04-23T10:32:53.950Z,8.30
2018-04-23T10:33:53.944Z,8.20
2018-04-23T10:34:53.948Z,9.50
2018-04-23T10:35:53.927Z,7.90
2018-04-23T10:36:53.924Z,7.60
2018-04-23T10:37:53.921Z,8.90
2018-04-23T10:38:53.909Z,7.40
2018-04-23T10:39:53.912Z,7.00
2018-04-23T10:40:53.903Z,7.10
2018-04-23T10:41:53.893Z,7.30
2018-04-23T10:42:53.984Z,6.70
2018-04-23T10:43:53.873Z,6.40
2018-04-23T10:44:53.926Z,7.50
2018-04-23T10:45:53.864Z,9.30
2018-04-23T10:46:53.901Z,7.30
2018-04-23T10:47:53.843Z,9.40
2018-04-23T10:48:53.837Z,7.60
2018-04-23T10:49:53.829Z,9.20
2018-04-23T10:50:53.822Z,8.40
2018-04-23T10:51:53.813Z,7.70
2018-04-23T10:52:53.813Z,9.80
2018-04-23T10:53:53.800Z,8.30
2018-04-23T10:54:53.793Z,8.40
2018-04-23T10:55:53.782Z,6.70
2018-04-23T10:56:53.782Z,8.70
2018-04-23T10:57:53.774Z,8.90
2018-04-23T10:58:53.764Z,8.80
2018-04-23T10:59:53.753Z,7.60
2018-04-23T11:00:53.753Z,7.50
2018-04-23T11:01:53.800Z,6.70
2018-04-23T11:02:53.742Z,8.20
2018-04-23T11:03:53.730Z,7.90
2018-04-23T11:04:53.723Z,7.70
2018-04-23T11:05:53.713Z,8.20
2018-04-23T11:06:53.703Z,7.30
2018-04-23T11:07:53.701Z,7.90
2018-04-23T11:08:53.698Z,10.10
2018-04-23T11:09:53.688Z,8.40
2018-04-23T11:10:53.684Z,7.80
2018-04-23T11:11:53.672Z,7.50
2018-04-23T11:12:53.662Z,9.60
2018-04-23T11:13:53.656Z,8.00
2018-04-23T11:14:53.652Z,8.80
2018-04-23T11:15:53.644Z,8.30
2018-04-23T11:16:53.640Z,8.30
2018-04-23T11:17:53.700Z,7.90
2018-04-23T11:18:53.613Z,8.10
2018-04-23T11:19:53.698Z,8.30
2018-04-23T11:20:53.602Z,8.60
2018-04-23T11:21:53.593Z,10.50
2018-04-23T11:22:53.582Z,8.10
2018-04-23T11:23:53.672Z,8.30
2018-04-23T11:24:53.578Z,9.20
2018-04-23T11:25:53.562Z,9.50
2018-04-23T11:26:53.564Z,8.40
2018-04-23T11:27:53.542Z,7.00
2018-04-23T11:28:53.537Z,7.40
2018-04-23T11:29:53.534Z,6.80
2018-04-23T11:30:53.517Z,7.20
2018-04-23T11:31:53.508Z,6.90
2018-04-23T11:32:53.503Z,8.70
2018-04-23T11:33:53.494Z,8.10
2018-04-23T11:34:53.495Z,6.70
2018-04-23T11:35:53.482Z,6.90
2018-04-23T11:36:53.472Z,7.20
2018-04-23T11:37:53.466Z,6.70
2018-04-23T11:38:53.455Z,6.60
2018-04-23T11:39:53.447Z,5.70
2018-04-23T11:40:53.443Z,6.10
2018-04-23T11:41:53.429Z,6.80
2018-04-23T11:42:53.423Z,6.60
2018-04-23T11:43:53.413Z,7.00
2018-04-23T11:44:53.410Z,6.60
2018-04-23T11:45:53.397Z,6.80
2018-04-23T11:46:53.401Z,8.10
2018-04-23T11:47:53.393Z,9.00
2018-04-23T11:48:53.375Z,7.50
2018-04-23T11:49:53.367Z,7.50
2018-04-23T11:50:53.363Z,8.10
2018-04-23T11:51:53.361Z,7.20
2018-04-23T11:52:53.342Z,7.40
2018-04-23T11:53:53.337Z,7.70
2018-04-23T11:54:53.332Z,8.90
2018-04-23T11:55:53.325Z,7.10
2018-04-23T11:56:53.316Z,7.70
2018-04-23T11:57:53.307Z,7.50
2018-04-23T11:58:53.304Z,9.20
2018-04-23T11:59:53.294Z,9.10
2018-04-23T12:00:53.297Z,7.70
2018-04-23T12:01:53.282Z,7.00
2018-04-23T12:02:53.269Z,7.20
2018-04-23T12:03:53.264Z,7.50
2018-04-23T12:04:53.263Z,6.50
2018-04-23T12:05:53.262Z,6.60
2018-04-23T12:06:53.247Z,7.30
2018-04-23T12:07:53.234Z,9.10
2018-04-23T12:08:53.227Z,13.20
2018-04-23T12:09:53.223Z,7.70
2018-04-23T12:10:53.232Z,8.30
2018-04-23T12:11:53.214Z,8.20
2018-04-23T12:12:53.203Z,8.80
2018-04-23T12:13:53.194Z,8.30
2018-04-23T12:14:53.184Z,9.70
2018-04-23T12:15:53.172Z,8.60
2018-04-23T12:16:53.174Z,9.20
2018-04-23T12:17:53.171Z,8.10
2018-04-23T12:18:53.158Z,8.60
2018-04-23T12:19:53.147Z,8.00
2018-04-23T12:20:53.145Z,8.70
2018-04-23T12:21:53.135Z,11.40
2018-04-23T12:22:53.122Z,10.40
2018-04-23T12:23:53.123Z,12.40
2018-04-23T12:24:53.104Z,11.70
2018-04-23T12:25:53.105Z,10.50
2018-04-23T12:26:53.094Z,9.10
2018-04-23T12:27:53.083Z,10.40
2018-04-23T12:28:53.085Z,7.50
2018-04-23T12:29:53.077Z,8.30
2018-04-23T12:30:53.063Z,7.10
2018-04-23T12:31:53.058Z,8.10
2018-04-23T12:32:53.044Z,8.30
2018-04-23T12:33:53.045Z,8.80
2018-04-23T12:34:53.038Z,7.70
2018-04-23T12:35:53.034Z,7.60
2018-04-23T12:36:53.017Z,7.60
2018-04-23T12:37:53.010Z,8.40
2018-04-23T12:38:53.003Z,9.30
2018-04-23T12:39:52.999Z,7.50
2018-04-23T12:40:52.997Z,9.40
2018-04-23T12:41:52.984Z,8.40
2018-04-23T12:42:52.971Z,8.10
2018-04-23T12:43:52.968Z,8.10
2018-04-23T12:44:52.957Z,10.80
2018-04-23T12:45:52.975Z,7.80
2018-04-23T12:46:52.950Z,6.90
2018-04-23T12:47:52.942Z,7.90
2018-04-23T12:48:52.923Z,7.80
2018-04-23T12:49:52.914Z,10.30
2018-04-23T12:50:52.909Z,8.10
2018-04-23T12:51:52.904Z,8.70
2018-04-23T12:52:52.908Z,8.50
2018-04-23T12:53:52.892Z,8.00
2018-04-23T12:54:52.879Z,8.70
2018-04-23T12:55:52.873Z,8.30
2018-04-23T12:56:52.863Z,9.10
2018-04-23T12:57:52.854Z,11.30
2018-04-23T12:58:52.841Z,9.00
2018-04-23T12:59:52.837Z,9.50